Flag for Chile

Past Weather in 33°26'31.5"S, 70°45'50.6"W, Chile — Yesterday and Last 2 Weeks

Currently: 57 °F. Clear. (Weather station: Pudahuel, Chile). See more current weather

Past Weather in 33°26'31.5"S, 70°45'50.6"W — Graph

°F

33°26'31.5"S, 70°45'50.6"W Temperature Yesterday

Maximum temperature yesterday: 86 °F (at 5:00 pm)
Minimum temperature yesterday: 55 °F (at 6:00 am)
Average temperature yesterday: 70 °F

High & Low Weather Summary for the Past Weeks

 TemperatureHumidityPressure
High91 °F (Feb 23, 5:00 pm)100% (Feb 14, 5:04 am)30.07 "Hg (Feb 14, 5:04 am)
Low52 °F (Feb 22, 7:00 am)16% (Feb 23, 5:00 pm)29.83 "Hg (Feb 23, 5:00 pm)
Average67 °F62%29.96 "Hg
* Reported Feb 12 6:00 am — Feb 27 6:00 am, 33°26'31.5"S, 70°45'50.6"W. Weather by CustomWeather, © 2021

Note: Actual official high and low records may vary slightly from our data, if they occured in-between our weather recording intervals... More about our weather records

33°26'31.5"S, 70°45'50.6"W Weather History for the Previous 24 Hours

Scroll right to see more
 ConditionsComfort  
Time TempWeatherWind HumidityBarometerVisibility
6:00 am
Sat, Feb 27
59 °FCool.5 mph82%29.89 "HgN/A
5:00 am61 °FCool.6 mph83%29.89 "HgN/A
4:00 am59 °FCool.6 mph88%29.89 "HgN/A
3:00 am61 °FCool.7 mph83%29.89 "HgN/A
2:00 am63 °FMild.8 mph77%29.89 "HgN/A
1:00 am64 °FMild.7 mph73%29.89 "HgN/A
12:00 am66 °FMild.8 mph68%29.89 "HgN/A
11:00 pm
Fri, Feb 26
68 °FPassing clouds.7 mph64%29.92 "HgN/A
10:00 pm68 °FClear.12 mph69%29.89 "Hg10 mi
9:00 pm72 °FClear.13 mph61%29.86 "Hg10 mi
8:00 pm77 °FSunny.12 mph51%29.86 "Hg10 mi
7:00 pm82 °FSunny.14 mph40%29.86 "Hg10 mi
6:00 pm82 °FSunny.15 mph40%29.86 "Hg10 mi
5:00 pm86 °FSunny.15 mph35%29.86 "Hg10 mi
4:00 pm84 °FSunny.16 mph37%29.86 "Hg10 mi
3:00 pm84 °FSunny.14 mph40%29.89 "Hg10 mi
2:00 pm82 °FPassing clouds.13 mph42%29.89 "HgN/A
1:00 pm81 °FPassing clouds.8 mph45%29.89 "HgN/A
12:00 pm77 °FPassing clouds.6 mph51%29.92 "HgN/A
11:00 am70 °FPassing clouds.6 mph60%29.89 "HgN/A
10:00 am66 °FClear.7 mph68%29.89 "Hg5 mi
9:00 am61 °FClear.7 mph77%29.89 "Hg4 mi
8:00 am59 °FClear.3 mph82%29.86 "Hg5 mi
7:00 am55 °FClear.3 mph88%29.86 "Hg5 mi
Weather by CustomWeather, © 2021

See weather overview